sensor_id;sensor_type;location;lat;lon;timestamp;P1;durP1;ratioP1;P2;durP2;ratioP2
17595;SDS011;8916;47.086;15.920;2023-12-20T00:01:43;21.17;;;9.55;;
17595;SDS011;8916;47.086;15.920;2023-12-20T00:04:12;23.58;;;8.75;;
17595;SDS011;8916;47.086;15.920;2023-12-20T00:06:41;22.30;;;9.63;;
17595;SDS011;8916;47.086;15.920;2023-12-20T00:09:11;18.83;;;8.18;;
17595;SDS011;8916;47.086;15.920;2023-12-20T00:11:40;16.15;;;7.88;;
17595;SDS011;8916;47.086;15.920;2023-12-20T00:14:09;17.40;;;8.10;;
17595;SDS011;8916;47.086;15.920;2023-12-20T00:16:39;18.65;;;7.70;;
17595;SDS011;8916;47.086;15.920;2023-12-20T00:19:08;22.75;;;7.97;;
17595;SDS011;8916;47.086;15.920;2023-12-20T00:21:38;22.52;;;7.85;;
17595;SDS011;8916;47.086;15.920;2023-12-20T00:24:07;21.08;;;8.40;;
17595;SDS011;8916;47.086;15.920;2023-12-20T00:26:36;18.30;;;7.63;;
17595;SDS011;8916;47.086;15.920;2023-12-20T00:29:05;15.98;;;7.53;;
17595;SDS011;8916;47.086;15.920;2023-12-20T00:31:34;22.92;;;8.80;;
17595;SDS011;8916;47.086;15.920;2023-12-20T00:34:04;22.35;;;8.77;;
17595;SDS011;8916;47.086;15.920;2023-12-20T00:36:33;20.77;;;8.73;;
17595;SDS011;8916;47.086;15.920;2023-12-20T00:39:03;22.23;;;8.23;;
17595;SDS011;8916;47.086;15.920;2023-12-20T00:41:32;20.67;;;8.45;;
17595;SDS011;8916;47.086;15.920;2023-12-20T00:44:01;15.60;;;7.78;;
17595;SDS011;8916;47.086;15.920;2023-12-20T00:46:30;20.63;;;8.00;;
17595;SDS011;8916;47.086;15.920;2023-12-20T00:48:59;19.42;;;7.68;;
17595;SDS011;8916;47.086;15.920;2023-12-20T00:51:29;16.58;;;7.55;;
17595;SDS011;8916;47.086;15.920;2023-12-20T00:53:58;18.40;;;8.05;;
17595;SDS011;8916;47.086;15.920;2023-12-20T00:56:27;14.02;;;6.65;;
17595;SDS011;8916;47.086;15.920;2023-12-20T00:58:56;21.33;;;8.60;;
17595;SDS011;8916;47.086;15.920;2023-12-20T01:01:25;19.63;;;7.05;;
17595;SDS011;8916;47.086;15.920;2023-12-20T01:03:54;17.05;;;7.50;;
17595;SDS011;8916;47.086;15.920;2023-12-20T01:06:23;17.88;;;8.23;;
17595;SDS011;8916;47.086;15.920;2023-12-20T01:08:53;24.48;;;7.40;;
17595;SDS011;8916;47.086;15.920;2023-12-20T01:11:22;24.05;;;7.78;;
17595;SDS011;8916;47.086;15.920;2023-12-20T01:13:51;16.83;;;7.72;;
17595;SDS011;8916;47.086;15.920;2023-12-20T01:16:20;21.58;;;8.50;;
17595;SDS011;8916;47.086;15.920;2023-12-20T01:18:49;19.42;;;8.18;;
17595;SDS011;8916;47.086;15.920;2023-12-20T01:21:18;23.08;;;8.27;;
17595;SDS011;8916;47.086;15.920;2023-12-20T01:23:47;19.38;;;8.48;;
17595;SDS011;8916;47.086;15.920;2023-12-20T01:26:18;18.05;;;7.80;;
17595;SDS011;8916;47.086;15.920;2023-12-20T01:28:46;16.65;;;8.10;;
17595;SDS011;8916;47.086;15.920;2023-12-20T01:31:15;16.90;;;7.60;;
17595;SDS011;8916;47.086;15.920;2023-12-20T01:33:45;15.70;;;7.20;;
17595;SDS011;8916;47.086;15.920;2023-12-20T01:36:14;15.05;;;7.20;;
17595;SDS011;8916;47.086;15.920;2023-12-20T01:38:43;23.30;;;8.70;;
17595;SDS011;8916;47.086;15.920;2023-12-20T01:41:12;14.40;;;7.57;;
17595;SDS011;8916;47.086;15.920;2023-12-20T01:43:42;14.90;;;7.13;;
17595;SDS011;8916;47.086;15.920;2023-12-20T01:46:18;18.15;;;7.45;;
17595;SDS011;8916;47.086;15.920;2023-12-20T01:48:48;17.08;;;7.30;;
17595;SDS011;8916;47.086;15.920;2023-12-20T01:51:17;17.25;;;8.32;;
17595;SDS011;8916;47.086;15.920;2023-12-20T01:53:47;13.70;;;7.25;;
17595;SDS011;8916;47.086;15.920;2023-12-20T01:56:17;21.35;;;7.88;;
17595;SDS011;8916;47.086;15.920;2023-12-20T01:58:48;18.73;;;7.53;;
17595;SDS011;8916;47.086;15.920;2023-12-20T02:01:17;19.17;;;7.63;;
17595;SDS011;8916;47.086;15.920;2023-12-20T02:03:46;18.48;;;7.53;;
17595;SDS011;8916;47.086;15.920;2023-12-20T02:06:16;12.93;;;7.10;;
17595;SDS011;8916;47.086;15.920;2023-12-20T02:08:46;20.65;;;7.15;;
17595;SDS011;8916;47.086;15.920;2023-12-20T02:11:15;17.80;;;7.05;;
17595;SDS011;8916;47.086;15.920;2023-12-20T02:13:45;19.80;;;7.70;;
17595;SDS011;8916;47.086;15.920;2023-12-20T02:16:15;18.25;;;7.15;;
17595;SDS011;8916;47.086;15.920;2023-12-20T02:18:44;18.15;;;7.47;;
17595;SDS011;8916;47.086;15.920;2023-12-20T02:21:13;15.40;;;7.50;;
17595;SDS011;8916;47.086;15.920;2023-12-20T02:23:45;20.10;;;7.72;;
17595;SDS011;8916;47.086;15.920;2023-12-20T02:26:13;20.73;;;7.72;;
17595;SDS011;8916;47.086;15.920;2023-12-20T02:28:42;19.58;;;7.25;;
17595;SDS011;8916;47.086;15.920;2023-12-20T02:31:11;16.60;;;6.70;;
17595;SDS011;8916;47.086;15.920;2023-12-20T02:33:40;21.75;;;7.90;;
17595;SDS011;8916;47.086;15.920;2023-12-20T02:36:10;19.55;;;7.40;;
17595;SDS011;8916;47.086;15.920;2023-12-20T02:38:39;17.42;;;8.13;;
17595;SDS011;8916;47.086;15.920;2023-12-20T02:41:09;18.35;;;7.78;;
17595;SDS011;8916;47.086;15.920;2023-12-20T02:43:38;16.50;;;7.63;;
17595;SDS011;8916;47.086;15.920;2023-12-20T02:46:07;19.08;;;7.75;;
17595;SDS011;8916;47.086;15.920;2023-12-20T02:48:36;20.38;;;6.93;;
17595;SDS011;8916;47.086;15.920;2023-12-20T02:51:06;18.42;;;7.85;;
17595;SDS011;8916;47.086;15.920;2023-12-20T02:53:34;18.25;;;6.82;;
17595;SDS011;8916;47.086;15.920;2023-12-20T02:56:04;23.75;;;8.80;;
17595;SDS011;8916;47.086;15.920;2023-12-20T02:58:35;17.98;;;7.85;;
17595;SDS011;8916;47.086;15.920;2023-12-20T03:01:04;16.23;;;7.97;;
17595;SDS011;8916;47.086;15.920;2023-12-20T03:03:33;20.88;;;8.10;;
17595;SDS011;8916;47.086;15.920;2023-12-20T03:06:02;15.05;;;7.32;;
17595;SDS011;8916;47.086;15.920;2023-12-20T03:08:31;15.73;;;6.85;;
17595;SDS011;8916;47.086;15.920;2023-12-20T03:11:00;16.60;;;7.53;;
17595;SDS011;8916;47.086;15.920;2023-12-20T03:13:29;21.30;;;7.20;;
17595;SDS011;8916;47.086;15.920;2023-12-20T03:16:00;24.35;;;7.95;;
17595;SDS011;8916;47.086;15.920;2023-12-20T03:18:29;21.90;;;8.18;;
17595;SDS011;8916;47.086;15.920;2023-12-20T03:20:58;18.38;;;7.78;;
17595;SDS011;8916;47.086;15.920;2023-12-20T03:23:27;17.50;;;7.88;;
17595;SDS011;8916;47.086;15.920;2023-12-20T03:25:57;20.33;;;7.93;;
17595;SDS011;8916;47.086;15.920;2023-12-20T03:28:27;17.33;;;7.10;;
17595;SDS011;8916;47.086;15.920;2023-12-20T03:30:56;18.98;;;8.15;;
17595;SDS011;8916;47.086;15.920;2023-12-20T03:33:26;16.10;;;7.32;;
17595;SDS011;8916;47.086;15.920;2023-12-20T03:35:56;18.63;;;8.07;;
17595;SDS011;8916;47.086;15.920;2023-12-20T03:38:25;22.08;;;8.05;;
17595;SDS011;8916;47.086;15.920;2023-12-20T03:40:54;17.50;;;7.53;;
17595;SDS011;8916;47.086;15.920;2023-12-20T03:43:23;15.13;;;7.57;;
17595;SDS011;8916;47.086;15.920;2023-12-20T03:45:51;15.77;;;8.05;;
17595;SDS011;8916;47.086;15.920;2023-12-20T03:48:20;15.32;;;8.23;;
17595;SDS011;8916;47.086;15.920;2023-12-20T03:50:51;18.52;;;8.02;;
17595;SDS011;8916;47.086;15.920;2023-12-20T03:53:20;15.02;;;7.93;;
17595;SDS011;8916;47.086;15.920;2023-12-20T03:55:49;22.80;;;8.60;;
17595;SDS011;8916;47.086;15.920;2023-12-20T03:58:18;15.48;;;7.90;;
17595;SDS011;8916;47.086;15.920;2023-12-20T04:00:47;18.88;;;8.63;;
17595;SDS011;8916;47.086;15.920;2023-12-20T04:03:16;14.45;;;7.47;;
17595;SDS011;8916;47.086;15.920;2023-12-20T04:05:45;15.82;;;7.35;;
17595;SDS011;8916;47.086;15.920;2023-12-20T04:08:16;19.75;;;8.63;;
17595;SDS011;8916;47.086;15.920;2023-12-20T04:10:45;24.33;;;7.68;;
17595;SDS011;8916;47.086;15.920;2023-12-20T04:13:14;14.10;;;6.60;;
17595;SDS011;8916;47.086;15.920;2023-12-20T04:15:42;20.23;;;7.50;;
17595;SDS011;8916;47.086;15.920;2023-12-20T04:18:12;29.15;;;8.55;;
17595;SDS011;8916;47.086;15.920;2023-12-20T04:20:41;23.30;;;8.55;;
17595;SDS011;8916;47.086;15.920;2023-12-20T04:23:10;22.23;;;8.32;;
17595;SDS011;8916;47.086;15.920;2023-12-20T04:25:40;23.63;;;9.55;;
17595;SDS011;8916;47.086;15.920;2023-12-20T04:28:09;24.00;;;7.90;;
17595;SDS011;8916;47.086;15.920;2023-12-20T04:30:38;24.08;;;8.45;;
17595;SDS011;8916;47.086;15.920;2023-12-20T04:33:07;19.90;;;8.73;;
17595;SDS011;8916;47.086;15.920;2023-12-20T04:35:36;17.27;;;8.40;;
17595;SDS011;8916;47.086;15.920;2023-12-20T04:38:07;20.33;;;7.10;;
17595;SDS011;8916;47.086;15.920;2023-12-20T04:40:37;18.92;;;7.43;;
17595;SDS011;8916;47.086;15.920;2023-12-20T04:43:09;21.25;;;7.85;;
17595;SDS011;8916;47.086;15.920;2023-12-20T04:45:38;13.50;;;7.50;;
17595;SDS011;8916;47.086;15.920;2023-12-20T04:48:07;16.02;;;8.25;;
17595;SDS011;8916;47.086;15.920;2023-12-20T04:50:36;20.23;;;8.00;;
17595;SDS011;8916;47.086;15.920;2023-12-20T04:53:05;21.88;;;8.27;;
17595;SDS011;8916;47.086;15.920;2023-12-20T04:55:34;20.40;;;8.57;;
17595;SDS011;8916;47.086;15.920;2023-12-20T04:58:03;19.35;;;8.18;;
17595;SDS011;8916;47.086;15.920;2023-12-20T05:00:34;18.95;;;8.77;;
17595;SDS011;8916;47.086;15.920;2023-12-20T05:03:03;23.85;;;9.15;;
17595;SDS011;8916;47.086;15.920;2023-12-20T05:05:33;21.17;;;9.20;;
17595;SDS011;8916;47.086;15.920;2023-12-20T05:08:02;15.60;;;7.75;;
17595;SDS011;8916;47.086;15.920;2023-12-20T05:10:32;20.25;;;9.20;;
17595;SDS011;8916;47.086;15.920;2023-12-20T05:13:02;20.63;;;9.05;;
17595;SDS011;8916;47.086;15.920;2023-12-20T05:15:31;20.05;;;8.30;;
17595;SDS011;8916;47.086;15.920;2023-12-20T05:18:01;22.25;;;8.32;;
17595;SDS011;8916;47.086;15.920;2023-12-20T05:20:31;17.40;;;7.38;;
17595;SDS011;8916;47.086;15.920;2023-12-20T05:23:00;19.50;;;8.95;;
17595;SDS011;8916;47.086;15.920;2023-12-20T05:25:29;23.75;;;9.20;;
17595;SDS011;8916;47.086;15.920;2023-12-20T05:27:58;20.42;;;8.52;;
17595;SDS011;8916;47.086;15.920;2023-12-20T05:30:27;19.63;;;8.63;;
17595;SDS011;8916;47.086;15.920;2023-12-20T05:32:56;17.25;;;7.72;;
17595;SDS011;8916;47.086;15.920;2023-12-20T05:35:26;21.02;;;8.65;;
17595;SDS011;8916;47.086;15.920;2023-12-20T05:37:55;17.00;;;7.85;;
17595;SDS011;8916;47.086;15.920;2023-12-20T05:40:24;26.17;;;10.85;;
17595;SDS011;8916;47.086;15.920;2023-12-20T05:42:53;26.05;;;10.32;;
17595;SDS011;8916;47.086;15.920;2023-12-20T05:45:22;24.23;;;9.68;;
17595;SDS011;8916;47.086;15.920;2023-12-20T05:47:51;20.60;;;8.95;;
17595;SDS011;8916;47.086;15.920;2023-12-20T05:50:21;24.38;;;9.15;;
17595;SDS011;8916;47.086;15.920;2023-12-20T05:52:52;23.90;;;9.85;;
17595;SDS011;8916;47.086;15.920;2023-12-20T05:55:21;23.35;;;9.80;;
17595;SDS011;8916;47.086;15.920;2023-12-20T05:57:50;23.83;;;10.00;;
17595;SDS011;8916;47.086;15.920;2023-12-20T06:00:19;24.85;;;8.82;;
17595;SDS011;8916;47.086;15.920;2023-12-20T06:02:48;20.67;;;9.25;;
17595;SDS011;8916;47.086;15.920;2023-12-20T06:05:17;19.85;;;8.02;;
17595;SDS011;8916;47.086;15.920;2023-12-20T06:07:47;19.98;;;8.52;;
17595;SDS011;8916;47.086;15.920;2023-12-20T06:10:19;22.20;;;9.30;;
17595;SDS011;8916;47.086;15.920;2023-12-20T06:12:49;18.67;;;8.50;;
17595;SDS011;8916;47.086;15.920;2023-12-20T06:15:18;24.73;;;9.23;;
17595;SDS011;8916;47.086;15.920;2023-12-20T06:17:48;18.42;;;8.75;;
17595;SDS011;8916;47.086;15.920;2023-12-20T06:20:17;20.52;;;10.63;;
17595;SDS011;8916;47.086;15.920;2023-12-20T06:22:46;23.65;;;9.60;;
17595;SDS011;8916;47.086;15.920;2023-12-20T06:25:16;21.88;;;9.23;;
17595;SDS011;8916;47.086;15.920;2023-12-20T06:27:46;18.45;;;8.18;;
17595;SDS011;8916;47.086;15.920;2023-12-20T06:30:16;15.95;;;7.07;;
17595;SDS011;8916;47.086;15.920;2023-12-20T06:32:45;26.38;;;8.63;;
17595;SDS011;8916;47.086;15.920;2023-12-20T06:35:15;22.08;;;7.55;;
17595;SDS011;8916;47.086;15.920;2023-12-20T06:37:44;18.08;;;7.72;;
17595;SDS011;8916;47.086;15.920;2023-12-20T06:40:13;22.10;;;8.48;;
17595;SDS011;8916;47.086;15.920;2023-12-20T06:42:46;15.63;;;7.50;;
17595;SDS011;8916;47.086;15.920;2023-12-20T06:45:31;16.00;;;7.13;;
17595;SDS011;8916;47.086;15.920;2023-12-20T06:48:00;17.42;;;7.90;;
17595;SDS011;8916;47.086;15.920;2023-12-20T06:50:29;17.75;;;8.38;;
17595;SDS011;8916;47.086;15.920;2023-12-20T06:52:58;19.05;;;8.25;;
17595;SDS011;8916;47.086;15.920;2023-12-20T06:55:35;20.42;;;9.25;;
17595;SDS011;8916;47.086;15.920;2023-12-20T06:58:06;19.85;;;8.98;;
17595;SDS011;8916;47.086;15.920;2023-12-20T07:00:36;22.80;;;8.52;;
17595;SDS011;8916;47.086;15.920;2023-12-20T07:03:05;20.50;;;8.63;;
17595;SDS011;8916;47.086;15.920;2023-12-20T07:05:34;19.55;;;8.70;;
17595;SDS011;8916;47.086;15.920;2023-12-20T07:08:03;20.92;;;7.88;;
17595;SDS011;8916;47.086;15.920;2023-12-20T07:10:34;21.65;;;8.95;;
17595;SDS011;8916;47.086;15.920;2023-12-20T07:13:03;16.67;;;8.43;;
17595;SDS011;8916;47.086;15.920;2023-12-20T07:15:34;23.00;;;8.18;;
17595;SDS011;8916;47.086;15.920;2023-12-20T07:18:04;19.10;;;8.30;;
17595;SDS011;8916;47.086;15.920;2023-12-20T07:20:34;17.83;;;8.00;;
17595;SDS011;8916;47.086;15.920;2023-12-20T07:23:03;16.42;;;8.48;;
17595;SDS011;8916;47.086;15.920;2023-12-20T07:25:32;18.42;;;7.75;;
17595;SDS011;8916;47.086;15.920;2023-12-20T07:28:01;17.98;;;8.20;;
17595;SDS011;8916;47.086;15.920;2023-12-20T07:30:31;18.88;;;8.10;;
17595;SDS011;8916;47.086;15.920;2023-12-20T07:33:02;22.35;;;9.00;;
17595;SDS011;8916;47.086;15.920;2023-12-20T07:35:32;17.83;;;8.05;;
17595;SDS011;8916;47.086;15.920;2023-12-20T07:38:01;17.95;;;8.15;;
17595;SDS011;8916;47.086;15.920;2023-12-20T07:40:30;18.75;;;8.10;;
17595;SDS011;8916;47.086;15.920;2023-12-20T07:42:59;18.50;;;8.13;;
17595;SDS011;8916;47.086;15.920;2023-12-20T07:45:28;20.23;;;9.20;;
17595;SDS011;8916;47.086;15.920;2023-12-20T07:47:57;16.23;;;7.72;;
17595;SDS011;8916;47.086;15.920;2023-12-20T07:50:28;16.02;;;8.02;;
17595;SDS011;8916;47.086;15.920;2023-12-20T07:52:57;14.38;;;7.18;;
17595;SDS011;8916;47.086;15.920;2023-12-20T07:55:28;15.90;;;6.95;;
17595;SDS011;8916;47.086;15.920;2023-12-20T07:57:57;15.63;;;6.70;;
17595;SDS011;8916;47.086;15.920;2023-12-20T08:00:27;14.70;;;6.07;;
17595;SDS011;8916;47.086;15.920;2023-12-20T08:02:56;27.13;;;6.45;;
17595;SDS011;8916;47.086;15.920;2023-12-20T08:05:25;14.27;;;6.75;;
17595;SDS011;8916;47.086;15.920;2023-12-20T08:07:56;12.13;;;6.32;;
17595;SDS011;8916;47.086;15.920;2023-12-20T08:10:25;13.32;;;5.93;;
17595;SDS011;8916;47.086;15.920;2023-12-20T08:12:56;16.73;;;6.93;;
17595;SDS011;8916;47.086;15.920;2023-12-20T08:15:26;15.05;;;6.80;;
17595;SDS011;8916;47.086;15.920;2023-12-20T08:17:55;13.52;;;6.00;;
17595;SDS011;8916;47.086;15.920;2023-12-20T08:20:24;12.75;;;5.60;;
17595;SDS011;8916;47.086;15.920;2023-12-20T08:23:07;13.02;;;5.05;;
17595;SDS011;8916;47.086;15.920;2023-12-20T08:25:36;14.90;;;6.13;;
17595;SDS011;8916;47.086;15.920;2023-12-20T08:28:05;11.63;;;5.55;;
17595;SDS011;8916;47.086;15.920;2023-12-20T08:30:34;16.92;;;5.93;;
17595;SDS011;8916;47.086;15.920;2023-12-20T08:33:04;18.50;;;5.82;;
17595;SDS011;8916;47.086;15.920;2023-12-20T08:35:38;12.73;;;6.43;;
17595;SDS011;8916;47.086;15.920;2023-12-20T08:38:09;18.58;;;6.93;;
17595;SDS011;8916;47.086;15.920;2023-12-20T08:40:38;13.13;;;6.25;;
17595;SDS011;8916;47.086;15.920;2023-12-20T08:43:07;12.38;;;5.85;;
17595;SDS011;8916;47.086;15.920;2023-12-20T08:45:36;18.17;;;6.90;;
17595;SDS011;8916;47.086;15.920;2023-12-20T08:48:06;15.18;;;6.80;;
17595;SDS011;8916;47.086;15.920;2023-12-20T08:50:36;13.80;;;6.90;;
17595;SDS011;8916;47.086;15.920;2023-12-20T08:53:06;15.93;;;7.30;;
17595;SDS011;8916;47.086;15.920;2023-12-20T08:55:37;17.10;;;7.57;;
17595;SDS011;8916;47.086;15.920;2023-12-20T08:58:06;17.17;;;8.05;;
17595;SDS011;8916;47.086;15.920;2023-12-20T09:00:35;22.27;;;8.82;;
17595;SDS011;8916;47.086;15.920;2023-12-20T09:03:05;21.55;;;8.32;;
17595;SDS011;8916;47.086;15.920;2023-12-20T09:05:35;15.63;;;7.40;;
17595;SDS011;8916;47.086;15.920;2023-12-20T09:08:04;16.13;;;7.57;;
17595;SDS011;8916;47.086;15.920;2023-12-20T09:10:35;15.60;;;6.68;;
17595;SDS011;8916;47.086;15.920;2023-12-20T09:13:05;17.13;;;6.95;;
17595;SDS011;8916;47.086;15.920;2023-12-20T09:15:34;15.48;;;7.40;;
17595;SDS011;8916;47.086;15.920;2023-12-20T09:18:04;14.50;;;7.18;;
17595;SDS011;8916;47.086;15.920;2023-12-20T09:20:33;14.52;;;6.72;;
17595;SDS011;8916;47.086;15.920;2023-12-20T09:23:07;16.20;;;7.68;;
17595;SDS011;8916;47.086;15.920;2023-12-20T09:25:37;15.05;;;7.35;;
17595;SDS011;8916;47.086;15.920;2023-12-20T09:28:06;15.18;;;7.43;;
17595;SDS011;8916;47.086;15.920;2023-12-20T09:30:35;18.50;;;7.25;;
17595;SDS011;8916;47.086;15.920;2023-12-20T09:33:07;12.80;;;6.63;;
17595;SDS011;8916;47.086;15.920;2023-12-20T09:35:36;16.38;;;6.90;;
17595;SDS011;8916;47.086;15.920;2023-12-20T09:38:05;19.70;;;7.40;;
17595;SDS011;8916;47.086;15.920;2023-12-20T09:40:35;17.00;;;6.82;;
17595;SDS011;8916;47.086;15.920;2023-12-20T09:43:10;14.52;;;6.78;;
17595;SDS011;8916;47.086;15.920;2023-12-20T09:45:43;17.88;;;6.97;;
17595;SDS011;8916;47.086;15.920;2023-12-20T09:48:17;13.30;;;6.30;;
17595;SDS011;8916;47.086;15.920;2023-12-20T09:50:47;11.93;;;6.88;;
17595;SDS011;8916;47.086;15.920;2023-12-20T09:53:20;14.32;;;6.70;;
17595;SDS011;8916;47.086;15.920;2023-12-20T09:55:58;13.32;;;5.70;;
17595;SDS011;8916;47.086;15.920;2023-12-20T09:58:28;15.23;;;6.88;;
17595;SDS011;8916;47.086;15.920;2023-12-20T10:00:57;14.13;;;7.03;;
17595;SDS011;8916;47.086;15.920;2023-12-20T10:03:27;12.88;;;6.88;;
17595;SDS011;8916;47.086;15.920;2023-12-20T10:05:56;18.80;;;7.20;;
17595;SDS011;8916;47.086;15.920;2023-12-20T10:08:28;13.00;;;6.70;;
17595;SDS011;8916;47.086;15.920;2023-12-20T10:11:00;14.57;;;6.50;;
17595;SDS011;8916;47.086;15.920;2023-12-20T10:13:31;16.02;;;6.70;;
17595;SDS011;8916;47.086;15.920;2023-12-20T10:16:00;13.15;;;6.90;;
17595;SDS011;8916;47.086;15.920;2023-12-20T10:18:30;13.93;;;6.68;;
17595;SDS011;8916;47.086;15.920;2023-12-20T10:21:05;14.13;;;6.85;;
17595;SDS011;8916;47.086;15.920;2023-12-20T10:23:37;17.85;;;6.57;;
17595;SDS011;8916;47.086;15.920;2023-12-20T10:26:09;10.82;;;5.88;;
17595;SDS011;8916;47.086;15.920;2023-12-20T10:28:39;10.10;;;6.03;;
17595;SDS011;8916;47.086;15.920;2023-12-20T10:31:08;12.65;;;6.72;;
17595;SDS011;8916;47.086;15.920;2023-12-20T10:33:38;11.52;;;6.45;;
17595;SDS011;8916;47.086;15.920;2023-12-20T10:36:09;14.27;;;6.63;;
17595;SDS011;8916;47.086;15.920;2023-12-20T10:38:40;18.90;;;7.00;;
17595;SDS011;8916;47.086;15.920;2023-12-20T10:41:12;16.90;;;6.88;;
17595;SDS011;8916;47.086;15.920;2023-12-20T10:43:55;14.02;;;5.93;;
17595;SDS011;8916;47.086;15.920;2023-12-20T10:46:27;17.20;;;6.25;;
17595;SDS011;8916;47.086;15.920;2023-12-20T10:48:57;16.95;;;6.55;;
17595;SDS011;8916;47.086;15.920;2023-12-20T10:51:26;16.50;;;7.00;;
17595;SDS011;8916;47.086;15.920;2023-12-20T10:53:57;11.90;;;6.15;;
17595;SDS011;8916;47.086;15.920;2023-12-20T10:56:28;20.58;;;6.95;;
17595;SDS011;8916;47.086;15.920;2023-12-20T10:59:02;14.82;;;6.70;;
17595;SDS011;8916;47.086;15.920;2023-12-20T11:01:34;14.18;;;6.75;;
17595;SDS011;8916;47.086;15.920;2023-12-20T11:04:05;14.02;;;7.00;;
17595;SDS011;8916;47.086;15.920;2023-12-20T11:06:40;13.52;;;6.72;;
17595;SDS011;8916;47.086;15.920;2023-12-20T11:09:19;13.93;;;6.38;;
17595;SDS011;8916;47.086;15.920;2023-12-20T11:12:01;12.20;;;6.00;;
17595;SDS011;8916;47.086;15.920;2023-12-20T11:14:39;17.63;;;6.30;;
17595;SDS011;8916;47.086;15.920;2023-12-20T11:17:14;15.30;;;6.15;;
17595;SDS011;8916;47.086;15.920;2023-12-20T11:20:03;15.18;;;5.70;;
17595;SDS011;8916;47.086;15.920;2023-12-20T11:22:35;16.48;;;6.45;;
17595;SDS011;8916;47.086;15.920;2023-12-20T11:25:08;16.10;;;6.75;;
17595;SDS011;8916;47.086;15.920;2023-12-20T11:27:41;14.32;;;6.75;;
17595;SDS011;8916;47.086;15.920;2023-12-20T11:30:15;10.68;;;4.63;;
17595;SDS011;8916;47.086;15.920;2023-12-20T11:32:45;19.27;;;7.90;;
17595;SDS011;8916;47.086;15.920;2023-12-20T11:35:18;15.50;;;6.25;;
17595;SDS011;8916;47.086;15.920;2023-12-20T11:37:48;13.00;;;6.57;;
17595;SDS011;8916;47.086;15.920;2023-12-20T11:40:17;14.70;;;6.28;;
17595;SDS011;8916;47.086;15.920;2023-12-20T11:42:50;12.15;;;5.93;;
17595;SDS011;8916;47.086;15.920;2023-12-20T11:45:22;12.65;;;6.10;;
17595;SDS011;8916;47.086;15.920;2023-12-20T11:47:57;13.70;;;6.35;;
17595;SDS011;8916;47.086;15.920;2023-12-20T11:50:26;12.75;;;7.07;;
17595;SDS011;8916;47.086;15.920;2023-12-20T11:52:57;12.55;;;6.47;;
17595;SDS011;8916;47.086;15.920;2023-12-20T11:55:26;16.55;;;7.15;;
17595;SDS011;8916;47.086;15.920;2023-12-20T11:57:56;14.23;;;6.50;;
17595;SDS011;8916;47.086;15.920;2023-12-20T12:00:25;19.02;;;7.40;;
17595;SDS011;8916;47.086;15.920;2023-12-20T12:02:55;19.45;;;7.68;;
17595;SDS011;8916;47.086;15.920;2023-12-20T12:05:25;19.73;;;8.50;;
17595;SDS011;8916;47.086;15.920;2023-12-20T12:07:55;17.52;;;8.90;;
17595;SDS011;8916;47.086;15.920;2023-12-20T12:10:24;18.27;;;8.00;;
17595;SDS011;8916;47.086;15.920;2023-12-20T12:12:53;18.25;;;8.35;;
17595;SDS011;8916;47.086;15.920;2023-12-20T12:15:24;26.17;;;10.05;;
17595;SDS011;8916;47.086;15.920;2023-12-20T12:17:53;17.15;;;8.40;;
17595;SDS011;8916;47.086;15.920;2023-12-20T12:20:23;15.30;;;7.80;;
17595;SDS011;8916;47.086;15.920;2023-12-20T12:22:59;15.70;;;7.05;;
17595;SDS011;8916;47.086;15.920;2023-12-20T12:25:29;16.60;;;7.90;;
17595;SDS011;8916;47.086;15.920;2023-12-20T12:27:59;13.82;;;7.20;;
17595;SDS011;8916;47.086;15.920;2023-12-20T12:30:30;17.50;;;7.43;;
17595;SDS011;8916;47.086;15.920;2023-12-20T12:33:05;16.38;;;7.22;;
17595;SDS011;8916;47.086;15.920;2023-12-20T12:35:35;16.55;;;6.90;;
17595;SDS011;8916;47.086;15.920;2023-12-20T12:38:04;16.83;;;7.75;;
17595;SDS011;8916;47.086;15.920;2023-12-20T12:40:36;17.60;;;7.45;;
17595;SDS011;8916;47.086;15.920;2023-12-20T12:43:05;16.75;;;7.55;;
17595;SDS011;8916;47.086;15.920;2023-12-20T12:45:36;15.40;;;7.93;;
17595;SDS011;8916;47.086;15.920;2023-12-20T12:48:05;14.25;;;7.35;;
17595;SDS011;8916;47.086;15.920;2023-12-20T12:50:35;16.40;;;7.10;;
17595;SDS011;8916;47.086;15.920;2023-12-20T12:53:04;17.23;;;7.85;;
17595;SDS011;8916;47.086;15.920;2023-12-20T12:55:34;18.90;;;7.32;;
17595;SDS011;8916;47.086;15.920;2023-12-20T12:58:03;14.07;;;7.47;;
17595;SDS011;8916;47.086;15.920;2023-12-20T13:00:35;25.83;;;8.57;;
17595;SDS011;8916;47.086;15.920;2023-12-20T13:03:06;20.92;;;7.97;;
17595;SDS011;8916;47.086;15.920;2023-12-20T13:05:35;24.38;;;8.23;;
17595;SDS011;8916;47.086;15.920;2023-12-20T13:08:08;17.38;;;8.20;;
17595;SDS011;8916;47.086;15.920;2023-12-20T13:10:39;35.60;;;9.13;;
17595;SDS011;8916;47.086;15.920;2023-12-20T13:13:08;16.30;;;7.90;;
17595;SDS011;8916;47.086;15.920;2023-12-20T13:15:38;21.88;;;8.25;;
17595;SDS011;8916;47.086;15.920;2023-12-20T13:18:08;17.00;;;7.75;;
17595;SDS011;8916;47.086;15.920;2023-12-20T13:20:37;24.75;;;8.55;;
17595;SDS011;8916;47.086;15.920;2023-12-20T13:23:07;15.98;;;7.40;;
17595;SDS011;8916;47.086;15.920;2023-12-20T13:25:36;19.58;;;7.78;;
17595;SDS011;8916;47.086;15.920;2023-12-20T13:28:05;17.08;;;7.50;;
17595;SDS011;8916;47.086;15.920;2023-12-20T13:30:35;23.80;;;8.45;;
17595;SDS011;8916;47.086;15.920;2023-12-20T13:33:07;21.00;;;8.65;;
17595;SDS011;8916;47.086;15.920;2023-12-20T13:35:37;19.25;;;7.78;;
17595;SDS011;8916;47.086;15.920;2023-12-20T13:38:06;21.65;;;8.10;;
17595;SDS011;8916;47.086;15.920;2023-12-20T13:40:36;17.98;;;7.00;;
17595;SDS011;8916;47.086;15.920;2023-12-20T13:43:05;21.08;;;8.38;;
17595;SDS011;8916;47.086;15.920;2023-12-20T13:45:34;20.65;;;7.97;;
17595;SDS011;8916;47.086;15.920;2023-12-20T13:48:03;17.27;;;7.13;;
17595;SDS011;8916;47.086;15.920;2023-12-20T13:50:35;18.23;;;8.38;;
17595;SDS011;8916;47.086;15.920;2023-12-20T13:53:04;26.83;;;9.57;;
17595;SDS011;8916;47.086;15.920;2023-12-20T13:55:33;17.58;;;8.10;;
17595;SDS011;8916;47.086;15.920;2023-12-20T13:58:02;16.83;;;7.55;;
17595;SDS011;8916;47.086;15.920;2023-12-20T14:00:32;16.65;;;7.70;;
17595;SDS011;8916;47.086;15.920;2023-12-20T14:03:01;16.13;;;6.63;;
17595;SDS011;8916;47.086;15.920;2023-12-20T14:05:31;12.90;;;6.85;;
17595;SDS011;8916;47.086;15.920;2023-12-20T14:08:02;14.85;;;6.70;;
17595;SDS011;8916;47.086;15.920;2023-12-20T14:10:31;19.98;;;9.25;;
17595;SDS011;8916;47.086;15.920;2023-12-20T14:13:01;18.80;;;8.85;;
17595;SDS011;8916;47.086;15.920;2023-12-20T14:15:30;20.80;;;8.43;;
17595;SDS011;8916;47.086;15.920;2023-12-20T14:18:05;16.30;;;7.40;;
17595;SDS011;8916;47.086;15.920;2023-12-20T14:20:36;17.58;;;7.70;;
17595;SDS011;8916;47.086;15.920;2023-12-20T14:23:08;24.50;;;8.82;;
17595;SDS011;8916;47.086;15.920;2023-12-20T14:25:37;19.13;;;8.65;;
17595;SDS011;8916;47.086;15.920;2023-12-20T14:28:18;22.17;;;8.43;;
17595;SDS011;8916;47.086;15.920;2023-12-20T14:30:48;23.00;;;8.25;;
17595;SDS011;8916;47.086;15.920;2023-12-20T14:33:18;19.77;;;7.72;;
17595;SDS011;8916;47.086;15.920;2023-12-20T14:35:49;18.80;;;8.43;;
17595;SDS011;8916;47.086;15.920;2023-12-20T14:38:19;32.25;;;10.75;;
17595;SDS011;8916;47.086;15.920;2023-12-20T14:40:48;26.73;;;10.80;;
17595;SDS011;8916;47.086;15.920;2023-12-20T14:43:18;27.92;;;11.65;;
17595;SDS011;8916;47.086;15.920;2023-12-20T14:45:49;22.08;;;8.70;;
17595;SDS011;8916;47.086;15.920;2023-12-20T14:48:19;22.30;;;9.68;;
17595;SDS011;8916;47.086;15.920;2023-12-20T14:50:49;19.50;;;8.63;;